createdAt,value
2023-02-12T00:01:20.884Z,15.00
2023-02-12T00:03:48.573Z,13.90
2023-02-12T00:06:16.446Z,14.10
2023-02-12T00:08:44.246Z,14.80
2023-02-12T00:11:14.898Z,12.30
2023-02-12T00:13:43.504Z,13.50
2023-02-12T00:16:14.872Z,14.20
2023-02-12T00:18:43.376Z,9.80
2023-02-12T00:21:12.019Z,12.10
2023-02-12T00:23:40.556Z,15.60
2023-02-12T00:26:13.775Z,13.60
2023-02-12T00:28:41.903Z,14.30
2023-02-12T00:31:12.402Z,14.10
2023-02-12T00:33:40.418Z,12.80
2023-02-12T00:36:09.432Z,15.00
2023-02-12T00:38:37.161Z,14.50
2023-02-12T00:41:05.249Z,15.80
2023-02-12T00:43:33.075Z,12.00
2023-02-12T00:46:00.891Z,14.60
2023-02-12T00:48:28.721Z,10.30
2023-02-12T00:50:56.472Z,11.20
2023-02-12T00:53:24.110Z,14.80
2023-02-12T00:55:51.846Z,12.60
2023-02-12T00:58:19.632Z,15.40
2023-02-12T01:00:47.379Z,12.70
2023-02-12T01:03:15.604Z,15.50
2023-02-12T01:05:43.559Z,15.00
2023-02-12T01:08:13.296Z,14.50
2023-02-12T01:10:41.857Z,14.90
2023-02-12T01:13:13.597Z,15.30
2023-02-12T01:15:42.462Z,14.30
2023-02-12T01:18:10.141Z,13.60
2023-02-12T01:20:40.302Z,13.60
2023-02-12T01:23:08.046Z,10.90
2023-02-12T01:25:35.607Z,15.30
2023-02-12T01:28:03.375Z,13.80
2023-02-12T01:30:31.201Z,14.00
2023-02-12T01:32:58.912Z,11.60
2023-02-12T01:35:26.498Z,11.90
2023-02-12T01:37:56.306Z,13.60
2023-02-12T01:40:25.177Z,13.20
2023-02-12T01:42:52.877Z,14.80
2023-02-12T01:45:23.509Z,14.50
2023-02-12T01:47:51.270Z,15.40
2023-02-12T01:50:20.682Z,15.00
2023-02-12T01:52:53.728Z,13.80
2023-02-12T01:55:22.139Z,13.90
2023-02-12T01:57:50.115Z,14.80
2023-02-12T02:00:21.475Z,15.10
2023-02-12T02:02:53.308Z,13.80
2023-02-12T02:05:47.476Z,12.40
2023-02-12T02:08:15.066Z,15.10
2023-02-12T02:10:42.957Z,14.40
2023-02-12T02:13:10.673Z,14.10
2023-02-12T02:15:45.509Z,12.60
2023-02-12T02:18:26.854Z,7.90
2023-02-12T02:21:03.256Z,14.50
2023-02-12T02:23:51.501Z,14.50
2023-02-12T02:26:22.175Z,13.60
2023-02-12T02:29:00.928Z,13.10
2023-02-12T02:31:47.287Z,13.50
2023-02-12T02:34:28.962Z,12.70
2023-02-12T02:37:08.672Z,13.90
2023-02-12T02:39:41.448Z,15.30
2023-02-12T02:42:44.797Z,15.00
2023-02-12T02:45:28.082Z,13.20
2023-02-12T02:48:02.216Z,14.20
2023-02-12T02:50:34.443Z,14.60
2023-02-12T02:53:07.996Z,10.70
2023-02-12T02:55:40.619Z,8.60
2023-02-12T02:58:16.795Z,11.40
2023-02-12T03:01:08.171Z,14.60
2023-02-12T03:04:05.600Z,11.20
2023-02-12T03:06:40.997Z,12.70
2023-02-12T03:09:29.557Z,13.40
2023-02-12T03:12:03.410Z,13.50
2023-02-12T03:14:36.831Z,13.90
2023-02-12T03:17:13.826Z,12.10
2023-02-12T03:19:47.581Z,11.70
2023-02-12T03:22:23.320Z,11.60
2023-02-12T03:25:09.049Z,12.70
2023-02-12T03:27:42.701Z,12.00
2023-02-12T03:30:11.536Z,11.90
2023-02-12T03:33:00.941Z,12.20
2023-02-12T03:35:35.578Z,11.70
2023-02-12T03:38:14.541Z,13.30
2023-02-12T03:40:59.515Z,11.10
2023-02-12T03:43:34.307Z,11.80
2023-02-12T03:46:28.376Z,10.70
2023-02-12T03:49:34.317Z,13.00
2023-02-12T03:52:03.622Z,11.60
2023-02-12T03:54:31.810Z,12.00
2023-02-12T03:57:13.821Z,12.40
2023-02-12T03:59:42.008Z,10.70
2023-02-12T04:02:10.006Z,11.00
2023-02-12T04:04:38.460Z,10.50
2023-02-12T04:07:06.136Z,10.80
2023-02-12T04:09:33.933Z,11.70
2023-02-12T04:12:20.477Z,10.40
2023-02-12T04:15:06.855Z,10.50
2023-02-12T04:17:49.500Z,6.80
2023-02-12T04:22:59.964Z,8.30
2023-02-12T04:25:43.636Z,12.30
2023-02-12T04:28:38.996Z,12.70
2023-02-12T04:31:33.223Z,10.40
2023-02-12T04:34:29.300Z,8.40
2023-02-12T04:37:02.805Z,11.80
2023-02-12T04:39:35.841Z,9.30
2023-02-12T04:42:03.897Z,14.90
2023-02-12T04:44:38.216Z,13.50
2023-02-12T04:47:05.780Z,16.50
2023-02-12T04:49:33.697Z,18.00
2023-02-12T04:52:01.355Z,16.70
2023-02-12T04:54:29.234Z,17.40
2023-02-12T04:56:56.815Z,13.80
2023-02-12T04:59:24.591Z,14.70
2023-02-12T05:01:52.607Z,12.30
2023-02-12T05:04:20.331Z,12.00
2023-02-12T05:06:48.174Z,14.10
2023-02-12T05:09:19.543Z,10.00
2023-02-12T05:11:47.286Z,10.60
2023-02-12T05:14:15.533Z,12.60
2023-02-12T05:16:43.375Z,12.80
2023-02-12T05:19:11.069Z,10.90
2023-02-12T05:21:38.816Z,12.10
2023-02-12T05:24:06.950Z,11.60
2023-02-12T05:26:35.301Z,10.70
2023-02-12T05:29:03.767Z,11.30
2023-02-12T05:31:31.464Z,11.10
2023-02-12T05:33:59.422Z,11.40
2023-02-12T05:36:27.493Z,11.80
2023-02-12T05:38:58.952Z,10.70
2023-02-12T05:41:27.265Z,10.70
2023-02-12T05:43:54.899Z,10.60
2023-02-12T05:46:22.607Z,12.10
2023-02-12T05:48:50.620Z,12.30
2023-02-12T05:51:21.314Z,14.10
2023-02-12T05:53:50.865Z,17.10
2023-02-12T05:56:22.811Z,15.30
2023-02-12T05:58:56.728Z,10.90
2023-02-12T06:01:33.416Z,9.30
2023-02-12T06:04:03.051Z,10.10
2023-02-12T06:06:31.917Z,8.70
2023-02-12T06:09:00.068Z,8.40
2023-02-12T06:11:28.179Z,7.50
2023-02-12T06:13:56.029Z,8.00
2023-02-12T06:16:26.645Z,7.90
2023-02-12T06:18:56.332Z,7.20
2023-02-12T06:21:26.254Z,7.20
2023-02-12T06:23:53.963Z,6.50
2023-02-12T06:26:23.136Z,6.80
2023-02-12T06:28:51.464Z,5.80
2023-02-12T06:31:31.398Z,6.10
2023-02-12T06:34:03.033Z,7.30
2023-02-12T06:36:30.813Z,6.60
2023-02-12T06:38:58.660Z,7.50
2023-02-12T06:41:26.337Z,6.70
2023-02-12T06:43:54.094Z,6.50
2023-02-12T06:46:22.164Z,6.40
2023-02-12T06:48:55.094Z,7.30
2023-02-12T06:51:23.317Z,6.60
2023-02-12T06:53:52.506Z,7.20
2023-02-12T06:56:21.678Z,7.90
2023-02-12T06:58:57.783Z,7.80
2023-02-12T07:01:27.446Z,7.70
2023-02-12T07:03:57.628Z,7.80
2023-02-12T07:06:27.058Z,8.10
2023-02-12T07:08:58.512Z,8.40
2023-02-12T07:11:28.606Z,8.70
2023-02-12T07:13:56.371Z,8.50
2023-02-12T07:16:24.064Z,8.80
2023-02-12T07:18:51.906Z,8.20
2023-02-12T07:21:20.528Z,7.70
2023-02-12T07:23:51.459Z,7.60
2023-02-12T07:26:21.241Z,8.30
2023-02-12T07:28:50.469Z,7.00
2023-02-12T07:31:23.153Z,7.80
2023-02-12T07:33:58.486Z,7.90
2023-02-12T07:36:29.245Z,6.70
2023-02-12T07:38:57.510Z,5.20
2023-02-12T07:41:27.979Z,6.40
2023-02-12T07:46:28.458Z,4.10
2023-02-12T07:48:58.018Z,4.20
2023-02-12T07:51:27.290Z,4.00
2023-02-12T07:53:55.058Z,4.50
2023-02-12T07:56:27.936Z,4.20
2023-02-12T07:58:55.555Z,3.70
2023-02-12T08:01:26.045Z,4.90
2023-02-12T08:06:24.388Z,4.00
2023-02-12T08:11:21.629Z,3.40
2023-02-12T08:13:49.504Z,3.50
2023-02-12T08:16:19.756Z,3.50
2023-02-12T08:21:19.429Z,3.10
2023-02-12T08:23:48.108Z,3.20
2023-02-12T08:26:19.402Z,3.80
2023-02-12T08:28:50.273Z,3.70
2023-02-12T08:31:21.306Z,4.10
2023-02-12T08:33:50.189Z,4.30
2023-02-12T08:36:20.478Z,5.10
2023-02-12T08:38:48.600Z,4.70
2023-02-12T08:41:22.612Z,5.30
2023-02-12T08:43:53.256Z,4.80
2023-02-12T08:46:24.069Z,4.80
2023-02-12T08:48:54.872Z,4.10
2023-02-12T08:51:25.687Z,4.60
2023-02-12T08:53:56.423Z,4.40
2023-02-12T08:56:24.834Z,4.00
2023-02-12T08:58:53.157Z,4.20
2023-02-12T09:01:23.368Z,2.90
2023-02-12T09:03:51.718Z,3.70
2023-02-12T09:06:21.460Z,2.50
2023-02-12T09:08:49.883Z,3.50
2023-02-12T09:11:20.854Z,3.60
2023-02-12T09:13:48.527Z,3.70
2023-02-12T09:16:16.508Z,4.00
2023-02-12T09:18:44.547Z,5.30
2023-02-12T09:21:14.273Z,6.70
2023-02-12T09:23:42.574Z,6.00
2023-02-12T09:26:12.756Z,4.90
2023-02-12T09:28:40.889Z,3.50
2023-02-12T09:31:20.587Z,3.60
2023-02-12T09:33:52.211Z,4.30
2023-02-12T09:36:22.132Z,4.30
2023-02-12T09:38:50.461Z,3.60
2023-02-12T09:41:48.398Z,4.00
2023-02-12T09:44:21.740Z,4.30
2023-02-12T09:47:06.938Z,5.20
2023-02-12T09:49:59.066Z,4.60
2023-02-12T09:52:29.168Z,3.60
2023-02-12T09:54:58.060Z,4.90
2023-02-12T09:57:30.981Z,4.20
2023-02-12T10:00:01.945Z,5.10
2023-02-12T10:02:29.772Z,4.20
2023-02-12T10:05:01.939Z,4.50
2023-02-12T10:08:08.475Z,5.60
2023-02-12T10:10:50.884Z,4.40
2023-02-12T10:13:46.492Z,4.60
2023-02-12T10:16:38.522Z,5.40
2023-02-12T10:19:14.244Z,5.30
2023-02-12T10:21:47.596Z,4.10
2023-02-12T10:24:21.017Z,5.50
2023-02-12T10:26:50.119Z,4.90
2023-02-12T10:29:21.881Z,5.30
2023-02-12T10:34:35.203Z,6.00
2023-02-12T10:37:28.930Z,5.90
2023-02-12T10:40:03.016Z,5.10
2023-02-12T10:42:40.813Z,5.40
2023-02-12T10:45:16.670Z,7.40
2023-02-12T10:47:46.835Z,5.70
2023-02-12T10:50:57.672Z,4.80
2023-02-12T10:53:31.847Z,5.80
2023-02-12T10:56:11.871Z,6.40
2023-02-12T10:58:42.164Z,6.10
2023-02-12T11:01:27.383Z,6.70
2023-02-12T11:03:56.929Z,5.90
2023-02-12T11:06:27.192Z,7.30
2023-02-12T11:11:28.869Z,5.80
2023-02-12T11:14:21.057Z,7.90
2023-02-12T11:16:59.147Z,6.30
2023-02-12T11:19:30.207Z,6.50
2023-02-12T11:22:15.034Z,7.40
2023-02-12T11:24:43.004Z,7.40
2023-02-12T11:27:17.308Z,6.90
2023-02-12T11:29:48.014Z,5.90
2023-02-12T11:32:18.412Z,6.20
2023-02-12T11:35:07.089Z,6.90
2023-02-12T11:37:40.903Z,7.30
2023-02-12T11:40:17.331Z,4.60
2023-02-12T11:42:50.662Z,5.50
2023-02-12T11:45:21.700Z,5.60
2023-02-12T11:47:51.224Z,5.80
2023-02-12T11:50:27.353Z,6.00
2023-02-12T11:53:00.446Z,5.20
2023-02-12T11:55:33.745Z,6.10
2023-02-12T11:58:03.464Z,6.20
2023-02-12T12:00:43.035Z,7.90
2023-02-12T12:03:26.981Z,6.10
2023-02-12T12:06:02.762Z,5.50
2023-02-12T12:08:36.868Z,6.80
2023-02-12T12:11:33.691Z,6.20
2023-02-12T12:14:24.188Z,7.00
2023-02-12T12:17:10.571Z,6.30
2023-02-12T12:20:03.371Z,5.70
2023-02-12T12:22:57.688Z,6.90
2023-02-12T12:25:46.223Z,6.30
2023-02-12T12:28:26.111Z,6.50
2023-02-12T12:31:06.209Z,6.30
2023-02-12T12:34:03.398Z,6.80
2023-02-12T12:36:51.722Z,5.20
2023-02-12T12:39:34.794Z,6.20
2023-02-12T12:42:18.589Z,7.00
2023-02-12T12:45:07.982Z,6.60
2023-02-12T12:48:03.447Z,6.90
2023-02-12T12:50:49.926Z,6.80
2023-02-12T12:53:55.269Z,5.70
2023-02-12T12:56:50.774Z,6.40
2023-02-12T12:59:21.646Z,8.20
2023-02-12T13:02:14.454Z,6.10
2023-02-12T13:05:11.899Z,6.50
2023-02-12T13:07:42.246Z,4.80
2023-02-12T13:10:31.390Z,5.30
2023-02-12T13:13:18.064Z,5.40
2023-02-12T13:16:21.796Z,5.00
2023-02-12T13:18:55.320Z,3.80
2023-02-12T13:21:55.457Z,5.10
2023-02-12T13:24:41.462Z,4.50
2023-02-12T13:27:22.319Z,4.30
2023-02-12T13:29:54.746Z,3.80
2023-02-12T13:32:30.563Z,3.70
2023-02-12T13:35:00.017Z,3.60
2023-02-12T13:37:38.188Z,3.60
2023-02-12T13:40:08.948Z,4.40
2023-02-12T13:42:52.356Z,3.70
2023-02-12T13:45:30.891Z,3.40
2023-02-12T13:48:17.153Z,2.90
2023-02-12T13:50:47.378Z,3.30
2023-02-12T13:53:30.905Z,3.10
2023-02-12T13:56:07.754Z,3.50
2023-02-12T13:58:35.464Z,3.10
2023-02-12T14:01:06.132Z,3.70
2023-02-12T14:03:35.436Z,3.30
2023-02-12T14:06:21.522Z,3.30
2023-02-12T14:09:09.904Z,3.70
2023-02-12T14:11:50.625Z,3.00
2023-02-12T14:14:47.117Z,2.90
2023-02-12T14:17:30.166Z,3.70
2023-02-12T14:20:26.158Z,3.10
2023-02-12T14:23:21.661Z,3.90
2023-02-12T14:26:02.394Z,3.50
2023-02-12T14:28:52.224Z,3.30
2023-02-12T14:31:20.087Z,3.90
2023-02-12T14:33:51.092Z,3.70
2023-02-12T14:36:33.848Z,3.80
2023-02-12T14:39:20.173Z,4.10
2023-02-12T14:41:49.985Z,3.90
2023-02-12T14:44:17.474Z,4.30
2023-02-12T14:46:51.960Z,4.60
2023-02-12T14:49:28.780Z,4.40
2023-02-12T14:52:11.653Z,4.80
2023-02-12T14:54:58.632Z,5.10
2023-02-12T14:57:42.596Z,4.30
2023-02-12T15:00:16.639Z,5.30
2023-02-12T15:02:59.943Z,4.70
2023-02-12T15:05:52.261Z,4.20
2023-02-12T15:08:31.936Z,5.40
2023-02-12T15:11:03.933Z,4.70
2023-02-12T15:13:57.770Z,5.20
2023-02-12T15:16:35.534Z,6.00
2023-02-12T15:19:24.109Z,5.10
2023-02-12T15:21:52.879Z,6.30
2023-02-12T15:24:23.256Z,6.30
2023-02-12T15:26:54.300Z,6.80
2023-02-12T15:29:40.871Z,6.50
2023-02-12T15:32:17.960Z,7.90
2023-02-12T15:34:49.265Z,7.00
2023-02-12T15:37:30.071Z,7.10
2023-02-12T15:40:00.610Z,7.80
2023-02-12T15:42:36.879Z,7.20
2023-02-12T15:45:11.400Z,6.90
2023-02-12T15:47:39.372Z,7.20
2023-02-12T15:50:12.228Z,7.80
2023-02-12T15:52:44.784Z,6.90
2023-02-12T15:55:25.073Z,8.70
2023-02-12T15:57:59.520Z,9.80
2023-02-12T16:00:27.115Z,16.60
2023-02-12T16:02:54.965Z,19.90
2023-02-12T16:05:23.393Z,35.60
2023-02-12T16:07:51.515Z,36.70
2023-02-12T16:10:20.798Z,48.20
2023-02-12T16:12:50.118Z,31.70
2023-02-12T16:15:32.677Z,31.20
2023-02-12T16:18:00.393Z,21.90
2023-02-12T16:20:29.514Z,17.30
2023-02-12T16:22:57.438Z,15.00
2023-02-12T16:25:29.672Z,14.10
2023-02-12T16:28:07.718Z,15.00
2023-02-12T16:30:40.434Z,18.00
2023-02-12T16:33:38.856Z,33.30
2023-02-12T16:36:20.137Z,26.90
2023-02-12T16:38:56.744Z,23.10
2023-02-12T16:41:30.885Z,18.30
2023-02-12T16:44:02.347Z,21.30
2023-02-12T16:46:33.607Z,22.10
2023-02-12T16:49:03.025Z,33.30
2023-02-12T16:51:33.864Z,35.10
2023-02-12T16:54:03.527Z,31.10
2023-02-12T16:56:34.256Z,36.90
2023-02-12T16:59:01.956Z,31.10
2023-02-12T17:01:32.428Z,30.70
2023-02-12T17:06:31.147Z,26.00
2023-02-12T17:08:59.816Z,25.80
2023-02-12T17:11:28.634Z,21.40
2023-02-12T17:13:56.577Z,24.90
2023-02-12T17:16:30.891Z,23.40
2023-02-12T17:19:00.589Z,20.90
2023-02-12T17:21:33.735Z,22.10
2023-02-12T17:24:01.792Z,20.20
2023-02-12T17:26:29.727Z,23.30
2023-02-12T17:28:57.339Z,25.90
2023-02-12T17:31:25.243Z,29.00
2023-02-12T17:33:52.870Z,21.80
2023-02-12T17:36:20.505Z,25.30
2023-02-12T17:38:48.212Z,24.20
2023-02-12T17:41:16.146Z,20.90
2023-02-12T17:43:44.313Z,19.80
2023-02-12T17:46:21.408Z,22.10
2023-02-12T17:48:49.080Z,26.70
2023-02-12T17:51:17.527Z,25.70
2023-02-12T17:53:45.485Z,23.40
2023-02-12T17:56:19.563Z,25.10
2023-02-12T17:58:48.448Z,25.90
2023-02-12T18:01:19.105Z,23.40
2023-02-12T18:03:47.027Z,22.50
2023-02-12T18:06:22.807Z,29.20
2023-02-12T18:08:50.515Z,27.20
2023-02-12T18:11:20.300Z,28.40
2023-02-12T18:13:48.499Z,30.20
2023-02-12T18:16:16.338Z,27.60
2023-02-12T18:18:43.902Z,25.90
2023-02-12T18:21:14.322Z,27.60
2023-02-12T18:23:42.921Z,26.70
2023-02-12T18:26:17.542Z,31.40
2023-02-12T18:28:45.714Z,34.20
2023-02-12T18:31:14.012Z,29.40
2023-02-12T18:33:42.022Z,33.90
2023-02-12T18:36:14.511Z,33.30
2023-02-12T18:38:43.180Z,32.30
2023-02-12T18:41:17.533Z,30.60
2023-02-12T18:43:46.276Z,30.30
2023-02-12T18:46:19.419Z,32.20
2023-02-12T18:48:48.025Z,26.80
2023-02-12T18:51:21.880Z,27.40
2023-02-12T18:54:00.943Z,27.80
2023-02-12T18:56:31.563Z,26.90
2023-02-12T18:59:03.175Z,28.90
2023-02-12T19:01:32.454Z,29.80
2023-02-12T19:04:03.197Z,31.60
2023-02-12T19:06:32.789Z,32.10
2023-02-12T19:09:02.561Z,30.50
2023-02-12T19:11:31.822Z,32.20
2023-02-12T19:13:59.647Z,29.60
2023-02-12T19:16:27.544Z,30.20
2023-02-12T19:18:57.080Z,31.90
2023-02-12T19:21:26.553Z,36.00
2023-02-12T19:23:55.709Z,42.10
2023-02-12T19:26:24.126Z,42.90
2023-02-12T19:28:52.983Z,42.40
2023-02-12T19:31:28.229Z,31.90
2023-02-12T19:33:58.416Z,32.10
2023-02-12T19:36:27.701Z,27.50
2023-02-12T19:38:55.732Z,29.10
2023-02-12T19:41:25.425Z,33.90
2023-02-12T19:43:54.607Z,39.20
2023-02-12T19:46:22.558Z,36.50
2023-02-12T19:48:58.099Z,32.80
2023-02-12T19:51:27.086Z,37.50
2023-02-12T19:53:55.163Z,36.70
2023-02-12T19:56:23.118Z,37.10
2023-02-12T19:58:51.451Z,34.80
2023-02-12T20:01:21.064Z,34.40
2023-02-12T20:03:49.639Z,35.00
2023-02-12T20:06:23.488Z,35.10
2023-02-12T20:08:51.887Z,34.10
2023-02-12T20:11:23.700Z,34.90
2023-02-12T20:13:51.885Z,39.50
2023-02-12T20:16:22.916Z,37.50
2023-02-12T20:18:54.442Z,35.60
2023-02-12T20:21:26.169Z,35.90
2023-02-12T20:23:54.584Z,36.60
2023-02-12T20:26:23.592Z,33.80
2023-02-12T20:28:51.666Z,36.10
2023-02-12T20:31:23.182Z,35.00
2023-02-12T20:33:58.710Z,37.00
2023-02-12T20:36:29.677Z,42.30
2023-02-12T20:38:59.290Z,42.50
2023-02-12T20:41:27.906Z,41.00
2023-02-12T20:43:58.990Z,46.20
2023-02-12T20:46:28.012Z,49.10
2023-02-12T20:48:56.768Z,46.30
2023-02-12T20:51:26.639Z,48.90
2023-02-12T20:53:55.264Z,48.00
2023-02-12T20:56:25.753Z,50.40
2023-02-12T21:01:24.322Z,46.70
2023-02-12T21:03:54.593Z,41.80
2023-02-12T21:06:24.164Z,47.10
2023-02-12T21:08:51.848Z,36.90
2023-02-12T21:11:22.257Z,39.60
2023-02-12T21:14:18.563Z,36.70
2023-02-12T21:16:47.250Z,32.00
2023-02-12T21:19:14.890Z,35.40
2023-02-12T21:21:43.709Z,42.10
2023-02-12T21:24:17.156Z,42.70
2023-02-12T21:26:44.790Z,46.70
2023-02-12T21:29:12.418Z,48.20
2023-02-12T21:31:42.661Z,47.60
2023-02-12T21:34:14.150Z,47.70
2023-02-12T21:36:43.383Z,45.40
2023-02-12T21:39:14.324Z,49.00
2023-02-12T21:41:43.021Z,51.10
2023-02-12T21:44:14.162Z,54.90
2023-02-12T21:46:42.236Z,59.30
2023-02-12T21:49:12.173Z,58.70
2023-02-12T21:51:44.769Z,65.50
2023-02-12T21:54:15.087Z,59.50
2023-02-12T21:56:44.970Z,59.30
2023-02-12T21:59:13.509Z,59.20
2023-02-12T22:01:45.927Z,65.80
2023-02-12T22:04:14.384Z,69.70
2023-02-12T22:06:45.101Z,59.60
2023-02-12T22:09:14.914Z,54.40
2023-02-12T22:11:42.978Z,55.90
2023-02-12T22:14:14.205Z,56.40
2023-02-12T22:16:41.891Z,44.80
2023-02-12T22:19:09.663Z,54.60
2023-02-12T22:21:39.501Z,61.00
2023-02-12T22:24:09.603Z,60.90
2023-02-12T22:26:37.299Z,63.10
2023-02-12T22:29:07.149Z,53.80
2023-02-12T22:31:37.252Z,63.80
2023-02-12T22:34:07.957Z,60.90
2023-02-12T22:36:37.126Z,61.60
2023-02-12T22:39:05.530Z,59.10
2023-02-12T22:41:33.643Z,55.40
2023-02-12T22:44:02.780Z,58.70
2023-02-12T22:46:31.028Z,60.20
2023-02-12T22:48:58.985Z,60.20
2023-02-12T22:51:29.860Z,50.30
2023-02-12T22:53:58.288Z,47.90
2023-02-12T22:56:26.989Z,51.30
2023-02-12T22:59:00.341Z,52.20
2023-02-12T23:01:29.302Z,53.40
2023-02-12T23:03:57.437Z,45.60
2023-02-12T23:06:28.180Z,50.80
2023-02-12T23:08:59.400Z,44.20
2023-02-12T23:11:28.987Z,43.50
2023-02-12T23:13:57.206Z,47.40
2023-02-12T23:16:25.389Z,40.10
2023-02-12T23:18:58.208Z,38.30
2023-02-12T23:21:28.119Z,36.40
2023-02-12T23:23:56.271Z,37.80
2023-02-12T23:26:23.885Z,42.50
2023-02-12T23:28:51.518Z,38.20
2023-02-12T23:31:19.494Z,42.70
2023-02-12T23:33:47.548Z,40.50
2023-02-12T23:36:15.503Z,36.90
2023-02-12T23:38:43.108Z,42.60
2023-02-12T23:41:10.944Z,41.70
2023-02-12T23:43:38.540Z,37.90
2023-02-12T23:46:06.285Z,44.30
2023-02-12T23:48:34.170Z,34.90
2023-02-12T23:51:01.936Z,35.50
2023-02-12T23:53:29.699Z,34.60
2023-02-12T23:55:57.345Z,38.00
2023-02-12T23:58:24.977Z,32.20
